sensor_id;sensor_type;location;lat;lon;timestamp;P1;durP1;ratioP1;P2;durP2;ratioP2
17496;SDS011;62150;43.582;1.456;2023-03-05T07:04:06;25.80;;;13.30;;
17496;SDS011;62150;43.582;1.456;2023-03-05T07:06:35;23.00;;;12.70;;
17496;SDS011;62150;43.582;1.456;2023-03-05T07:09:04;24.37;;;13.90;;
17496;SDS011;62150;43.582;1.456;2023-03-05T07:11:32;24.77;;;13.33;;
17496;SDS011;62150;43.582;1.456;2023-03-05T07:14:00;26.20;;;13.93;;
17496;SDS011;62150;43.582;1.456;2023-03-05T07:16:29;26.67;;;13.57;;
17496;SDS011;62150;43.582;1.456;2023-03-05T07:18:59;24.23;;;13.07;;
17496;SDS011;62150;43.582;1.456;2023-03-05T07:21:31;26.83;;;13.97;;
17496;SDS011;62150;43.582;1.456;2023-03-05T07:24:00;24.30;;;13.23;;
17496;SDS011;62150;43.582;1.456;2023-03-05T07:26:29;24.97;;;13.40;;
17496;SDS011;62150;43.582;1.456;2023-03-05T07:28:57;24.93;;;13.03;;
17496;SDS011;62150;43.582;1.456;2023-03-05T07:31:25;23.93;;;13.17;;
17496;SDS011;62150;43.582;1.456;2023-03-05T07:33:56;25.70;;;13.83;;
17496;SDS011;62150;43.582;1.456;2023-03-05T07:36:25;24.67;;;13.63;;
17496;SDS011;62150;43.582;1.456;2023-03-05T07:38:54;23.43;;;13.50;;
17496;SDS011;62150;43.582;1.456;2023-03-05T07:41:22;26.60;;;13.70;;
17496;SDS011;62150;43.582;1.456;2023-03-05T07:43:50;23.93;;;13.47;;
17496;SDS011;62150;43.582;1.456;2023-03-05T07:46:19;24.70;;;13.43;;
17496;SDS011;62150;43.582;1.456;2023-03-05T07:48:49;23.13;;;13.27;;
17496;SDS011;62150;43.582;1.456;2023-03-05T07:51:18;24.93;;;13.77;;
17496;SDS011;62150;43.582;1.456;2023-03-05T07:53:47;23.73;;;13.13;;
17496;SDS011;62150;43.582;1.456;2023-03-05T07:56:21;25.83;;;13.67;;
17496;SDS011;62150;43.582;1.456;2023-03-05T07:58:50;23.23;;;12.87;;
17496;SDS011;62150;43.582;1.456;2023-03-05T08:01:17;24.93;;;12.90;;
17496;SDS011;62150;43.582;1.456;2023-03-05T08:03:45;27.03;;;13.97;;
17496;SDS011;62150;43.582;1.456;2023-03-05T08:06:12;24.93;;;13.53;;
17496;SDS011;62150;43.582;1.456;2023-03-05T08:08:40;24.73;;;14.17;;
17496;SDS011;62150;43.582;1.456;2023-03-05T08:11:08;27.47;;;14.20;;
17496;SDS011;62150;43.582;1.456;2023-03-05T08:13:39;26.03;;;14.90;;
17496;SDS011;62150;43.582;1.456;2023-03-05T08:16:08;26.17;;;14.57;;
17496;SDS011;62150;43.582;1.456;2023-03-05T08:18:37;26.23;;;14.33;;
17496;SDS011;62150;43.582;1.456;2023-03-05T08:21:05;28.20;;;14.63;;
17496;SDS011;62150;43.582;1.456;2023-03-05T08:23:40;27.20;;;15.17;;
17496;SDS011;62150;43.582;1.456;2023-03-05T08:26:10;24.70;;;13.93;;
17496;SDS011;62150;43.582;1.456;2023-03-05T08:28:40;26.33;;;14.63;;
17496;SDS011;62150;43.582;1.456;2023-03-05T08:31:08;25.93;;;14.37;;
17496;SDS011;62150;43.582;1.456;2023-03-05T08:33:36;25.10;;;13.80;;
17496;SDS011;62150;43.582;1.456;2023-03-05T08:36:04;25.47;;;14.03;;
17496;SDS011;62150;43.582;1.456;2023-03-05T08:38:32;24.23;;;13.60;;
17496;SDS011;62150;43.582;1.456;2023-03-05T08:41:01;26.37;;;13.57;;
17496;SDS011;62150;43.582;1.456;2023-03-05T08:43:28;23.63;;;13.60;;
17496;SDS011;62150;43.582;1.456;2023-03-05T08:45:59;23.77;;;13.20;;
17496;SDS011;62150;43.582;1.456;2023-03-05T08:48:27;23.67;;;13.00;;
17496;SDS011;62150;43.582;1.456;2023-03-05T08:50:56;23.70;;;13.23;;
17496;SDS011;62150;43.582;1.456;2023-03-05T08:53:24;25.97;;;14.57;;
17496;SDS011;62150;43.582;1.456;2023-03-05T08:55:55;26.63;;;14.73;;
17496;SDS011;62150;43.582;1.456;2023-03-05T08:58:23;26.30;;;14.27;;
17496;SDS011;62150;43.582;1.456;2023-03-05T09:00:51;26.07;;;14.37;;
17496;SDS011;62150;43.582;1.456;2023-03-05T09:03:20;27.30;;;14.83;;
17496;SDS011;62150;43.582;1.456;2023-03-05T09:05:47;26.33;;;14.10;;
17496;SDS011;62150;43.582;1.456;2023-03-05T09:08:16;25.17;;;13.97;;
17496;SDS011;62150;43.582;1.456;2023-03-05T09:10:44;27.47;;;14.67;;
17496;SDS011;62150;43.582;1.456;2023-03-05T09:13:12;28.03;;;15.07;;
17496;SDS011;62150;43.582;1.456;2023-03-05T09:15:39;27.47;;;15.00;;
17496;SDS011;62150;43.582;1.456;2023-03-05T09:18:07;25.83;;;14.50;;
17496;SDS011;62150;43.582;1.456;2023-03-05T09:20:36;31.27;;;16.23;;
17496;SDS011;62150;43.582;1.456;2023-03-05T09:23:04;24.57;;;14.50;;
17496;SDS011;62150;43.582;1.456;2023-03-05T09:25:31;34.40;;;18.43;;
17496;SDS011;62150;43.582;1.456;2023-03-05T09:27:59;29.23;;;16.67;;
17496;SDS011;62150;43.582;1.456;2023-03-05T09:30:26;30.17;;;15.57;;
17496;SDS011;62150;43.582;1.456;2023-03-05T09:32:53;29.13;;;15.93;;
17496;SDS011;62150;43.582;1.456;2023-03-05T09:35:21;27.43;;;14.97;;
17496;SDS011;62150;43.582;1.456;2023-03-05T09:37:50;28.80;;;16.47;;
17496;SDS011;62150;43.582;1.456;2023-03-05T09:40:18;33.53;;;18.50;;
17496;SDS011;62150;43.582;1.456;2023-03-05T09:42:57;29.80;;;15.93;;
17496;SDS011;62150;43.582;1.456;2023-03-05T09:45:29;30.07;;;16.50;;
17496;SDS011;62150;43.582;1.456;2023-03-05T09:48:05;30.33;;;16.90;;
17496;SDS011;62150;43.582;1.456;2023-03-05T09:50:41;32.43;;;16.73;;
17496;SDS011;62150;43.582;1.456;2023-03-05T09:53:17;27.93;;;15.57;;
17496;SDS011;62150;43.582;1.456;2023-03-05T09:55:51;24.23;;;14.00;;
17496;SDS011;62150;43.582;1.456;2023-03-05T09:58:21;32.67;;;17.20;;
17496;SDS011;62150;43.582;1.456;2023-03-05T10:00:56;27.30;;;15.20;;
17496;SDS011;62150;43.582;1.456;2023-03-05T10:03:27;28.73;;;14.83;;
17496;SDS011;62150;43.582;1.456;2023-03-05T10:06:03;28.10;;;15.87;;
17496;SDS011;62150;43.582;1.456;2023-03-05T10:08:43;36.07;;;19.73;;
17496;SDS011;62150;43.582;1.456;2023-03-05T10:11:20;27.43;;;15.07;;
17496;SDS011;62150;43.582;1.456;2023-03-05T10:14:13;28.00;;;15.17;;
17496;SDS011;62150;43.582;1.456;2023-03-05T10:16:59;27.67;;;15.37;;
17496;SDS011;62150;43.582;1.456;2023-03-05T10:19:55;30.07;;;15.83;;
17496;SDS011;62150;43.582;1.456;2023-03-05T10:22:45;27.77;;;14.93;;
17496;SDS011;62150;43.582;1.456;2023-03-05T10:25:33;27.53;;;15.03;;
17496;SDS011;62150;43.582;1.456;2023-03-05T10:28:14;30.13;;;16.93;;
17496;SDS011;62150;43.582;1.456;2023-03-05T10:30:51;27.60;;;14.27;;
17496;SDS011;62150;43.582;1.456;2023-03-05T10:33:41;26.20;;;14.50;;
17496;SDS011;62150;43.582;1.456;2023-03-05T10:39:23;27.33;;;15.13;;
17496;SDS011;62150;43.582;1.456;2023-03-05T10:42:12;31.13;;;16.50;;
17496;SDS011;62150;43.582;1.456;2023-03-05T10:44:48;30.37;;;16.57;;
17496;SDS011;62150;43.582;1.456;2023-03-05T10:47:21;26.33;;;14.80;;
17496;SDS011;62150;43.582;1.456;2023-03-05T10:49:53;27.03;;;14.83;;
17496;SDS011;62150;43.582;1.456;2023-03-05T10:52:24;34.40;;;17.83;;
17496;SDS011;62150;43.582;1.456;2023-03-05T10:54:56;31.60;;;18.13;;
17496;SDS011;62150;43.582;1.456;2023-03-05T10:57:26;29.57;;;16.67;;
17496;SDS011;62150;43.582;1.456;2023-03-05T10:59:57;29.77;;;16.37;;
17496;SDS011;62150;43.582;1.456;2023-03-05T11:02:33;31.40;;;17.23;;
17496;SDS011;62150;43.582;1.456;2023-03-05T11:05:29;28.97;;;16.67;;
17496;SDS011;62150;43.582;1.456;2023-03-05T11:08:26;27.93;;;15.87;;
17496;SDS011;62150;43.582;1.456;2023-03-05T11:11:09;27.13;;;15.13;;
17496;SDS011;62150;43.582;1.456;2023-03-05T11:13:42;28.23;;;15.43;;
17496;SDS011;62150;43.582;1.456;2023-03-05T11:16:20;31.33;;;17.53;;
17496;SDS011;62150;43.582;1.456;2023-03-05T11:18:49;26.47;;;14.70;;
17496;SDS011;62150;43.582;1.456;2023-03-05T11:21:35;25.10;;;14.17;;
17496;SDS011;62150;43.582;1.456;2023-03-05T11:24:04;27.70;;;15.47;;
17496;SDS011;62150;43.582;1.456;2023-03-05T11:26:42;28.30;;;15.97;;
17496;SDS011;62150;43.582;1.456;2023-03-05T11:29:20;28.10;;;15.40;;
17496;SDS011;62150;43.582;1.456;2023-03-05T11:31:49;27.33;;;14.83;;
17496;SDS011;62150;43.582;1.456;2023-03-05T11:34:21;27.03;;;15.30;;
17496;SDS011;62150;43.582;1.456;2023-03-05T11:36:59;32.13;;;16.80;;
17496;SDS011;62150;43.582;1.456;2023-03-05T11:39:30;30.07;;;15.27;;
17496;SDS011;62150;43.582;1.456;2023-03-05T11:42:02;26.20;;;14.77;;
17496;SDS011;62150;43.582;1.456;2023-03-05T11:44:34;25.67;;;14.70;;
17496;SDS011;62150;43.582;1.456;2023-03-05T11:47:12;26.57;;;14.70;;
17496;SDS011;62150;43.582;1.456;2023-03-05T11:49:49;28.63;;;16.40;;
17496;SDS011;62150;43.582;1.456;2023-03-05T11:52:20;29.67;;;16.53;;
17496;SDS011;62150;43.582;1.456;2023-03-05T11:54:53;25.30;;;13.73;;
17496;SDS011;62150;43.582;1.456;2023-03-05T11:57:28;25.07;;;13.80;;
17496;SDS011;62150;43.582;1.456;2023-03-05T12:00:10;27.97;;;14.77;;
17496;SDS011;62150;43.582;1.456;2023-03-05T12:02:41;28.03;;;14.53;;
17496;SDS011;62150;43.582;1.456;2023-03-05T12:05:12;25.37;;;14.33;;
17496;SDS011;62150;43.582;1.456;2023-03-05T12:07:41;27.60;;;15.07;;
17496;SDS011;62150;43.582;1.456;2023-03-05T12:10:13;27.43;;;16.03;;
17496;SDS011;62150;43.582;1.456;2023-03-05T12:12:45;26.40;;;14.70;;
17496;SDS011;62150;43.582;1.456;2023-03-05T12:15:34;25.23;;;13.63;;
17496;SDS011;62150;43.582;1.456;2023-03-05T12:18:16;29.60;;;17.40;;
17496;SDS011;62150;43.582;1.456;2023-03-05T12:20:54;28.87;;;16.07;;
17496;SDS011;62150;43.582;1.456;2023-03-05T12:23:27;26.13;;;14.27;;
17496;SDS011;62150;43.582;1.456;2023-03-05T12:26:09;30.93;;;17.60;;
17496;SDS011;62150;43.582;1.456;2023-03-05T12:28:55;29.93;;;16.40;;
17496;SDS011;62150;43.582;1.456;2023-03-05T12:31:33;26.47;;;14.77;;
17496;SDS011;62150;43.582;1.456;2023-03-05T12:37:08;24.27;;;14.03;;
17496;SDS011;62150;43.582;1.456;2023-03-05T12:39:47;28.23;;;15.93;;
17496;SDS011;62150;43.582;1.456;2023-03-05T12:42:38;25.17;;;14.27;;
17496;SDS011;62150;43.582;1.456;2023-03-05T12:45:23;26.47;;;15.40;;
17496;SDS011;62150;43.582;1.456;2023-03-05T12:51:10;25.87;;;13.67;;
17496;SDS011;62150;43.582;1.456;2023-03-05T12:53:39;22.90;;;12.47;;
17496;SDS011;62150;43.582;1.456;2023-03-05T12:56:12;29.87;;;15.90;;
17496;SDS011;62150;43.582;1.456;2023-03-05T12:58:46;24.00;;;13.50;;
17496;SDS011;62150;43.582;1.456;2023-03-05T13:01:22;24.90;;;13.63;;
17496;SDS011;62150;43.582;1.456;2023-03-05T13:04:11;23.23;;;13.10;;
17496;SDS011;62150;43.582;1.456;2023-03-05T13:06:43;22.70;;;12.87;;
17496;SDS011;62150;43.582;1.456;2023-03-05T13:09:15;23.33;;;12.30;;
17496;SDS011;62150;43.582;1.456;2023-03-05T13:11:46;25.00;;;13.33;;
17496;SDS011;62150;43.582;1.456;2023-03-05T13:14:36;23.90;;;13.37;;
17496;SDS011;62150;43.582;1.456;2023-03-05T13:17:25;25.03;;;13.20;;
17496;SDS011;62150;43.582;1.456;2023-03-05T13:19:56;25.53;;;14.37;;
17496;SDS011;62150;43.582;1.456;2023-03-05T13:22:24;23.03;;;13.97;;
17496;SDS011;62150;43.582;1.456;2023-03-05T13:27:40;26.23;;;14.67;;
17496;SDS011;62150;43.582;1.456;2023-03-05T13:30:21;24.97;;;13.83;;
17496;SDS011;62150;43.582;1.456;2023-03-05T13:32:50;24.60;;;14.40;;
17496;SDS011;62150;43.582;1.456;2023-03-05T13:35:21;23.70;;;13.17;;
17496;SDS011;62150;43.582;1.456;2023-03-05T13:37:49;23.03;;;13.33;;
17496;SDS011;62150;43.582;1.456;2023-03-05T13:40:20;23.87;;;13.37;;
17496;SDS011;62150;43.582;1.456;2023-03-05T13:42:49;25.53;;;14.37;;
17496;SDS011;62150;43.582;1.456;2023-03-05T13:45:25;21.90;;;11.87;;
17496;SDS011;62150;43.582;1.456;2023-03-05T13:47:55;21.70;;;11.40;;
17496;SDS011;62150;43.582;1.456;2023-03-05T13:50:27;22.77;;;12.47;;
17496;SDS011;62150;43.582;1.456;2023-03-05T13:52:56;21.50;;;12.77;;
17496;SDS011;62150;43.582;1.456;2023-03-05T13:55:40;21.93;;;12.10;;
17496;SDS011;62150;43.582;1.456;2023-03-05T14:01:12;22.23;;;12.23;;
17496;SDS011;62150;43.582;1.456;2023-03-05T14:03:43;20.70;;;11.80;;
17496;SDS011;62150;43.582;1.456;2023-03-05T14:06:17;23.57;;;12.90;;
17496;SDS011;62150;43.582;1.456;2023-03-05T14:08:50;21.20;;;12.13;;
17496;SDS011;62150;43.582;1.456;2023-03-05T14:11:19;22.33;;;11.63;;
17496;SDS011;62150;43.582;1.456;2023-03-05T14:13:47;24.00;;;12.70;;
17496;SDS011;62150;43.582;1.456;2023-03-05T14:16:24;21.60;;;12.23;;
17496;SDS011;62150;43.582;1.456;2023-03-05T14:18:57;20.87;;;12.03;;
17496;SDS011;62150;43.582;1.456;2023-03-05T14:21:27;20.90;;;11.83;;
17496;SDS011;62150;43.582;1.456;2023-03-05T14:24:11;21.47;;;12.13;;
17496;SDS011;62150;43.582;1.456;2023-03-05T14:26:40;20.67;;;11.30;;
17496;SDS011;62150;43.582;1.456;2023-03-05T14:29:16;22.43;;;12.47;;
17496;SDS011;62150;43.582;1.456;2023-03-05T14:31:46;22.07;;;12.40;;
17496;SDS011;62150;43.582;1.456;2023-03-05T14:34:19;21.23;;;11.73;;
17496;SDS011;62150;43.582;1.456;2023-03-05T14:36:51;21.27;;;11.40;;
17496;SDS011;62150;43.582;1.456;2023-03-05T14:39:28;21.20;;;11.60;;
17496;SDS011;62150;43.582;1.456;2023-03-05T14:44:51;24.07;;;12.70;;
17496;SDS011;62150;43.582;1.456;2023-03-05T14:47:20;24.13;;;13.17;;
17496;SDS011;62150;43.582;1.456;2023-03-05T14:49:48;22.53;;;12.00;;
17496;SDS011;62150;43.582;1.456;2023-03-05T14:52:17;21.47;;;12.10;;
17496;SDS011;62150;43.582;1.456;2023-03-05T14:54:47;20.50;;;11.80;;
17496;SDS011;62150;43.582;1.456;2023-03-05T14:57:16;20.37;;;10.33;;
17496;SDS011;62150;43.582;1.456;2023-03-05T14:59:46;21.17;;;11.20;;
17496;SDS011;62150;43.582;1.456;2023-03-05T15:02:18;19.90;;;11.13;;
17496;SDS011;62150;43.582;1.456;2023-03-05T15:04:47;21.07;;;11.30;;
17496;SDS011;62150;43.582;1.456;2023-03-05T15:07:17;20.50;;;11.37;;
17496;SDS011;62150;43.582;1.456;2023-03-05T15:09:47;21.93;;;11.53;;
17496;SDS011;62150;43.582;1.456;2023-03-05T15:12:15;19.97;;;10.83;;
17496;SDS011;62150;43.582;1.456;2023-03-05T15:14:43;17.87;;;9.57;;
17496;SDS011;62150;43.582;1.456;2023-03-05T15:17:15;19.60;;;10.70;;
17496;SDS011;62150;43.582;1.456;2023-03-05T15:19:45;20.13;;;10.07;;
17496;SDS011;62150;43.582;1.456;2023-03-05T15:22:14;19.40;;;10.17;;
17496;SDS011;62150;43.582;1.456;2023-03-05T15:24:43;20.93;;;11.00;;
17496;SDS011;62150;43.582;1.456;2023-03-05T15:27:11;17.83;;;10.40;;
17496;SDS011;62150;43.582;1.456;2023-03-05T15:29:38;18.83;;;10.07;;
17496;SDS011;62150;43.582;1.456;2023-03-05T15:32:06;20.23;;;11.07;;
17496;SDS011;62150;43.582;1.456;2023-03-05T15:34:34;21.03;;;11.23;;
17496;SDS011;62150;43.582;1.456;2023-03-05T15:37:02;20.53;;;10.70;;
17496;SDS011;62150;43.582;1.456;2023-03-05T15:39:31;19.17;;;10.00;;
17496;SDS011;62150;43.582;1.456;2023-03-05T15:41:58;18.13;;;10.30;;
17496;SDS011;62150;43.582;1.456;2023-03-05T15:44:26;21.70;;;11.90;;
17496;SDS011;62150;43.582;1.456;2023-03-05T15:46:53;20.93;;;11.07;;
17496;SDS011;62150;43.582;1.456;2023-03-05T15:49:21;19.03;;;10.40;;
17496;SDS011;62150;43.582;1.456;2023-03-05T15:51:50;21.10;;;11.33;;
17496;SDS011;62150;43.582;1.456;2023-03-05T15:54:19;19.63;;;10.37;;
17496;SDS011;62150;43.582;1.456;2023-03-05T15:56:48;18.10;;;9.27;;
17496;SDS011;62150;43.582;1.456;2023-03-05T15:59:16;18.80;;;11.10;;
17496;SDS011;62150;43.582;1.456;2023-03-05T16:01:46;20.53;;;10.90;;
17496;SDS011;62150;43.582;1.456;2023-03-05T16:04:16;21.37;;;11.53;;
17496;SDS011;62150;43.582;1.456;2023-03-05T16:06:43;21.53;;;11.73;;
17496;SDS011;62150;43.582;1.456;2023-03-05T16:09:13;20.37;;;10.90;;
17496;SDS011;62150;43.582;1.456;2023-03-05T16:11:42;21.07;;;10.87;;
17496;SDS011;62150;43.582;1.456;2023-03-05T16:14:15;20.70;;;11.10;;
17496;SDS011;62150;43.582;1.456;2023-03-05T16:16:47;19.50;;;9.83;;
17496;SDS011;62150;43.582;1.456;2023-03-05T16:19:15;18.37;;;10.20;;
17496;SDS011;62150;43.582;1.456;2023-03-05T16:21:45;17.50;;;9.97;;
17496;SDS011;62150;43.582;1.456;2023-03-05T16:24:12;20.77;;;12.03;;
17496;SDS011;62150;43.582;1.456;2023-03-05T16:26:40;21.83;;;12.83;;
17496;SDS011;62150;43.582;1.456;2023-03-05T16:29:07;20.60;;;11.87;;
17496;SDS011;62150;43.582;1.456;2023-03-05T16:31:37;21.93;;;11.40;;
17496;SDS011;62150;43.582;1.456;2023-03-05T16:34:07;19.33;;;10.43;;
17496;SDS011;62150;43.582;1.456;2023-03-05T16:36:34;21.40;;;11.00;;
17496;SDS011;62150;43.582;1.456;2023-03-05T16:39:03;19.40;;;10.03;;
17496;SDS011;62150;43.582;1.456;2023-03-05T16:41:31;26.37;;;15.30;;
17496;SDS011;62150;43.582;1.456;2023-03-05T16:43:58;24.40;;;13.27;;
17496;SDS011;62150;43.582;1.456;2023-03-05T16:46:27;21.03;;;11.37;;
17496;SDS011;62150;43.582;1.456;2023-03-05T16:48:56;22.17;;;12.17;;
17496;SDS011;62150;43.582;1.456;2023-03-05T16:51:24;22.07;;;12.17;;
17496;SDS011;62150;43.582;1.456;2023-03-05T16:53:52;19.20;;;10.73;;
17496;SDS011;62150;43.582;1.456;2023-03-05T16:56:20;20.00;;;10.10;;
17496;SDS011;62150;43.582;1.456;2023-03-05T16:58:48;21.70;;;11.43;;
17496;SDS011;62150;43.582;1.456;2023-03-05T17:01:16;21.00;;;11.47;;
17496;SDS011;62150;43.582;1.456;2023-03-05T17:03:45;21.07;;;11.87;;
17496;SDS011;62150;43.582;1.456;2023-03-05T17:06:14;21.60;;;11.67;;
17496;SDS011;62150;43.582;1.456;2023-03-05T17:08:43;19.17;;;11.13;;
17496;SDS011;62150;43.582;1.456;2023-03-05T17:11:11;20.90;;;11.40;;
17496;SDS011;62150;43.582;1.456;2023-03-05T17:13:40;21.97;;;11.60;;
17496;SDS011;62150;43.582;1.456;2023-03-05T17:16:08;21.93;;;12.10;;
17496;SDS011;62150;43.582;1.456;2023-03-05T17:18:37;20.87;;;11.53;;
17496;SDS011;62150;43.582;1.456;2023-03-05T17:21:05;22.40;;;11.70;;
17496;SDS011;62150;43.582;1.456;2023-03-05T17:23:35;22.27;;;12.00;;
17496;SDS011;62150;43.582;1.456;2023-03-05T17:26:04;20.17;;;11.07;;
17496;SDS011;62150;43.582;1.456;2023-03-05T17:28:33;22.37;;;11.30;;
17496;SDS011;62150;43.582;1.456;2023-03-05T17:31:00;21.27;;;11.23;;
17496;SDS011;62150;43.582;1.456;2023-03-05T17:33:28;19.40;;;10.37;;
17496;SDS011;62150;43.582;1.456;2023-03-05T17:35:57;18.53;;;9.97;;
17496;SDS011;62150;43.582;1.456;2023-03-05T17:38:25;21.60;;;11.27;;
17496;SDS011;62150;43.582;1.456;2023-03-05T17:40:54;19.90;;;10.67;;
17496;SDS011;62150;43.582;1.456;2023-03-05T17:43:22;20.67;;;10.97;;
17496;SDS011;62150;43.582;1.456;2023-03-05T17:45:49;19.63;;;10.37;;
17496;SDS011;62150;43.582;1.456;2023-03-05T17:48:17;20.03;;;11.13;;
17496;SDS011;62150;43.582;1.456;2023-03-05T17:50:44;17.87;;;9.53;;
17496;SDS011;62150;43.582;1.456;2023-03-05T17:53:12;20.50;;;9.70;;
17496;SDS011;62150;43.582;1.456;2023-03-05T17:55:40;19.37;;;9.90;;
17496;SDS011;62150;43.582;1.456;2023-03-05T17:58:09;20.10;;;11.07;;
17496;SDS011;62150;43.582;1.456;2023-03-05T18:00:36;18.77;;;10.30;;
17496;SDS011;62150;43.582;1.456;2023-03-05T18:03:04;20.30;;;10.90;;
17496;SDS011;62150;43.582;1.456;2023-03-05T18:05:32;20.17;;;11.77;;
17496;SDS011;62150;43.582;1.456;2023-03-05T18:07:59;21.97;;;11.77;;
17496;SDS011;62150;43.582;1.456;2023-03-05T18:10:27;21.17;;;11.67;;
17496;SDS011;62150;43.582;1.456;2023-03-05T18:12:56;19.83;;;10.57;;
17496;SDS011;62150;43.582;1.456;2023-03-05T18:15:25;22.13;;;11.47;;
17496;SDS011;62150;43.582;1.456;2023-03-05T18:17:54;21.60;;;11.60;;
17496;SDS011;62150;43.582;1.456;2023-03-05T18:20:24;20.10;;;11.60;;
17496;SDS011;62150;43.582;1.456;2023-03-05T18:22:53;21.83;;;11.47;;
17496;SDS011;62150;43.582;1.456;2023-03-05T18:25:21;20.50;;;10.97;;
17496;SDS011;62150;43.582;1.456;2023-03-05T18:27:55;21.97;;;12.10;;
17496;SDS011;62150;43.582;1.456;2023-03-05T18:30:23;22.33;;;11.37;;
17496;SDS011;62150;43.582;1.456;2023-03-05T18:32:52;19.90;;;11.27;;
17496;SDS011;62150;43.582;1.456;2023-03-05T18:35:20;22.23;;;12.17;;
17496;SDS011;62150;43.582;1.456;2023-03-05T18:37:48;20.97;;;12.10;;
17496;SDS011;62150;43.582;1.456;2023-03-05T18:40:17;23.03;;;12.50;;
17496;SDS011;62150;43.582;1.456;2023-03-05T18:42:47;20.20;;;12.00;;
17496;SDS011;62150;43.582;1.456;2023-03-05T18:45:15;22.07;;;11.83;;
17496;SDS011;62150;43.582;1.456;2023-03-05T18:47:45;20.03;;;11.67;;
17496;SDS011;62150;43.582;1.456;2023-03-05T18:50:14;22.80;;;11.63;;
17496;SDS011;62150;43.582;1.456;2023-03-05T18:52:43;22.37;;;11.57;;
17496;SDS011;62150;43.582;1.456;2023-03-05T18:55:13;23.07;;;12.10;;
17496;SDS011;62150;43.582;1.456;2023-03-05T18:57:41;22.27;;;12.07;;
17496;SDS011;62150;43.582;1.456;2023-03-05T19:00:10;25.33;;;13.90;;
17496;SDS011;62150;43.582;1.456;2023-03-05T19:02:39;22.97;;;13.73;;
17496;SDS011;62150;43.582;1.456;2023-03-05T19:05:09;23.67;;;13.63;;
17496;SDS011;62150;43.582;1.456;2023-03-05T19:07:37;23.03;;;14.13;;
17496;SDS011;62150;43.582;1.456;2023-03-05T19:10:06;25.13;;;13.90;;
17496;SDS011;62150;43.582;1.456;2023-03-05T19:12:36;24.20;;;14.50;;
17496;SDS011;62150;43.582;1.456;2023-03-05T19:15:10;25.67;;;15.17;;
17496;SDS011;62150;43.582;1.456;2023-03-05T19:17:39;26.03;;;15.50;;
17496;SDS011;62150;43.582;1.456;2023-03-05T19:20:13;25.20;;;14.93;;
17496;SDS011;62150;43.582;1.456;2023-03-05T19:22:42;25.80;;;14.73;;
17496;SDS011;62150;43.582;1.456;2023-03-05T19:25:10;26.67;;;14.13;;
17496;SDS011;62150;43.582;1.456;2023-03-05T19:27:38;24.00;;;13.67;;
17496;SDS011;62150;43.582;1.456;2023-03-05T19:30:06;27.37;;;17.03;;
17496;SDS011;62150;43.582;1.456;2023-03-05T19:32:34;38.33;;;21.03;;
17496;SDS011;62150;43.582;1.456;2023-03-05T19:35:03;34.50;;;19.17;;
17496;SDS011;62150;43.582;1.456;2023-03-05T19:37:32;65.73;;;32.57;;
17496;SDS011;62150;43.582;1.456;2023-03-05T19:40:00;117.50;;;47.77;;
17496;SDS011;62150;43.582;1.456;2023-03-05T19:42:28;147.43;;;60.77;;
17496;SDS011;62150;43.582;1.456;2023-03-05T19:44:55;123.83;;;53.80;;
17496;SDS011;62150;43.582;1.456;2023-03-05T19:47:23;82.83;;;41.40;;
17496;SDS011;62150;43.582;1.456;2023-03-05T19:49:50;72.80;;;38.33;;
17496;SDS011;62150;43.582;1.456;2023-03-05T19:52:18;54.83;;;32.77;;
17496;SDS011;62150;43.582;1.456;2023-03-05T19:54:49;60.47;;;32.40;;
17496;SDS011;62150;43.582;1.456;2023-03-05T19:57:17;44.50;;;25.00;;
17496;SDS011;62150;43.582;1.456;2023-03-05T19:59:44;43.03;;;25.57;;
17496;SDS011;62150;43.582;1.456;2023-03-05T20:02:12;41.57;;;23.70;;
17496;SDS011;62150;43.582;1.456;2023-03-05T20:04:42;41.13;;;23.60;;
17496;SDS011;62150;43.582;1.456;2023-03-05T20:07:10;35.90;;;21.40;;
17496;SDS011;62150;43.582;1.456;2023-03-05T20:09:37;41.23;;;24.73;;
17496;SDS011;62150;43.582;1.456;2023-03-05T20:12:07;34.03;;;21.43;;
17496;SDS011;62150;43.582;1.456;2023-03-05T20:14:34;38.77;;;22.17;;
17496;SDS011;62150;43.582;1.456;2023-03-05T20:17:02;38.23;;;23.73;;
17496;SDS011;62150;43.582;1.456;2023-03-05T20:19:29;35.33;;;21.57;;
17496;SDS011;62150;43.582;1.456;2023-03-05T20:21:57;36.70;;;21.63;;
17496;SDS011;62150;43.582;1.456;2023-03-05T20:24:25;34.20;;;20.80;;
17496;SDS011;62150;43.582;1.456;2023-03-05T20:26:52;33.93;;;20.80;;
17496;SDS011;62150;43.582;1.456;2023-03-05T20:29:22;31.43;;;19.77;;
17496;SDS011;62150;43.582;1.456;2023-03-05T20:31:51;38.30;;;22.17;;
17496;SDS011;62150;43.582;1.456;2023-03-05T20:34:21;34.97;;;22.13;;
17496;SDS011;62150;43.582;1.456;2023-03-05T20:36:51;36.27;;;22.93;;
17496;SDS011;62150;43.582;1.456;2023-03-05T20:39:18;38.03;;;23.93;;
17496;SDS011;62150;43.582;1.456;2023-03-05T20:41:46;37.57;;;23.30;;
17496;SDS011;62150;43.582;1.456;2023-03-05T20:44:15;38.97;;;23.13;;
17496;SDS011;62150;43.582;1.456;2023-03-05T20:46:44;37.83;;;22.83;;
17496;SDS011;62150;43.582;1.456;2023-03-05T20:49:23;34.17;;;22.17;;
17496;SDS011;62150;43.582;1.456;2023-03-05T20:51:51;36.73;;;22.70;;
17496;SDS011;62150;43.582;1.456;2023-03-05T20:54:18;37.53;;;22.37;;
17496;SDS011;62150;43.582;1.456;2023-03-05T20:56:46;36.23;;;22.77;;
17496;SDS011;62150;43.582;1.456;2023-03-05T20:59:16;35.83;;;22.93;;
17496;SDS011;62150;43.582;1.456;2023-03-05T21:01:48;38.63;;;23.40;;
17496;SDS011;62150;43.582;1.456;2023-03-05T21:04:16;38.63;;;22.97;;
17496;SDS011;62150;43.582;1.456;2023-03-05T21:06:45;35.23;;;22.53;;
17496;SDS011;62150;43.582;1.456;2023-03-05T21:09:20;36.00;;;22.43;;
17496;SDS011;62150;43.582;1.456;2023-03-05T21:11:49;39.67;;;24.43;;
17496;SDS011;62150;43.582;1.456;2023-03-05T21:14:17;37.00;;;23.17;;
17496;SDS011;62150;43.582;1.456;2023-03-05T21:16:44;38.07;;;23.60;;
17496;SDS011;62150;43.582;1.456;2023-03-05T21:19:13;39.63;;;24.20;;
17496;SDS011;62150;43.582;1.456;2023-03-05T21:21:42;36.30;;;23.67;;
17496;SDS011;62150;43.582;1.456;2023-03-05T21:24:10;35.37;;;23.23;;
17496;SDS011;62150;43.582;1.456;2023-03-05T21:26:38;39.17;;;22.73;;
17496;SDS011;62150;43.582;1.456;2023-03-05T21:29:06;33.73;;;21.37;;
17496;SDS011;62150;43.582;1.456;2023-03-05T21:31:33;34.77;;;20.33;;
17496;SDS011;62150;43.582;1.456;2023-03-05T21:34:01;33.57;;;19.93;;
17496;SDS011;62150;43.582;1.456;2023-03-05T21:36:30;33.03;;;20.30;;
17496;SDS011;62150;43.582;1.456;2023-03-05T21:39:00;32.67;;;19.77;;
17496;SDS011;62150;43.582;1.456;2023-03-05T21:41:34;33.73;;;20.80;;
17496;SDS011;62150;43.582;1.456;2023-03-05T21:44:02;34.10;;;20.17;;
17496;SDS011;62150;43.582;1.456;2023-03-05T21:46:30;34.47;;;21.23;;
17496;SDS011;62150;43.582;1.456;2023-03-05T21:48:59;33.73;;;20.13;;
17496;SDS011;62150;43.582;1.456;2023-03-05T21:51:26;33.50;;;20.40;;
17496;SDS011;62150;43.582;1.456;2023-03-05T21:54:04;32.33;;;19.93;;
17496;SDS011;62150;43.582;1.456;2023-03-05T21:56:33;28.57;;;17.73;;
17496;SDS011;62150;43.582;1.456;2023-03-05T21:59:00;30.10;;;17.53;;
17496;SDS011;62150;43.582;1.456;2023-03-05T22:01:31;27.83;;;17.37;;
17496;SDS011;62150;43.582;1.456;2023-03-05T22:03:58;29.50;;;17.50;;